createdAt,value
2018-10-11T00:01:00.387Z,97824.00
2018-10-11T00:03:32.099Z,97813.00
2018-10-11T00:06:04.144Z,97810.00
2018-10-11T00:08:36.184Z,97815.00
2018-10-11T00:11:08.100Z,97809.00
2018-10-11T00:13:40.011Z,97812.00
2018-10-11T00:16:11.854Z,97808.00
2018-10-11T00:18:43.707Z,97808.00
2018-10-11T00:21:15.487Z,97808.00
2018-10-11T00:23:47.232Z,97807.00
2018-10-11T00:26:18.984Z,97811.00
2018-10-11T00:28:50.768Z,97809.00
2018-10-11T00:31:22.559Z,97810.00
2018-10-11T00:33:54.468Z,97808.00
2018-10-11T00:36:26.227Z,97806.00
2018-10-11T00:38:57.987Z,97802.00
2018-10-11T00:41:29.752Z,97798.00
2018-10-11T00:44:01.524Z,97800.00
2018-10-11T00:46:33.277Z,97802.00
2018-10-11T00:49:05.131Z,97804.00
2018-10-11T00:51:36.904Z,97803.00
2018-10-11T00:54:09.014Z,97809.00
2018-10-11T00:56:41.363Z,97807.00
2018-10-11T00:59:13.235Z,97808.00
2018-10-11T01:01:45.043Z,97805.00
2018-10-11T01:04:16.904Z,97805.00
2018-10-11T01:06:48.691Z,97798.00
2018-10-11T01:09:20.502Z,97803.00
2018-10-11T01:11:52.410Z,97795.00
2018-10-11T01:14:24.167Z,97794.00
2018-10-11T01:16:56.006Z,97790.00
2018-10-11T01:19:28.092Z,97792.00
2018-10-11T01:22:00.062Z,97796.00
2018-10-11T01:24:31.923Z,97792.00
2018-10-11T01:27:03.766Z,97794.00
2018-10-11T01:29:35.526Z,97784.00
2018-10-11T01:32:07.594Z,97776.00
2018-10-11T01:34:39.459Z,97776.00
2018-10-11T01:37:11.338Z,97772.00
2018-10-11T01:39:43.333Z,97773.00
2018-10-11T01:42:15.245Z,97773.00
2018-10-11T01:44:47.348Z,97775.00
2018-10-11T01:47:19.191Z,97772.00
2018-10-11T01:49:51.166Z,97767.00
2018-10-11T01:52:23.008Z,97768.00
2018-10-11T01:54:54.791Z,97774.00
2018-10-11T01:57:26.623Z,97776.00
2018-10-11T01:59:58.572Z,97777.00
2018-10-11T02:02:30.318Z,97772.00
2018-10-11T02:05:01.902Z,97773.00
2018-10-11T02:07:33.673Z,97775.00
2018-10-11T02:10:05.730Z,97764.00
2018-10-11T02:12:37.483Z,97762.00
2018-10-11T02:15:09.840Z,97753.00
2018-10-11T02:17:41.672Z,97757.00
2018-10-11T02:20:13.587Z,97755.00
2018-10-11T02:22:45.449Z,97752.00
2018-10-11T02:25:17.180Z,97749.00
2018-10-11T02:27:49.066Z,97752.00
2018-10-11T02:30:20.911Z,97747.00
2018-10-11T02:32:52.757Z,97747.00
2018-10-11T02:35:24.427Z,97752.00
2018-10-11T02:37:56.296Z,97748.00
2018-10-11T02:40:28.169Z,97739.00
2018-10-11T02:42:59.909Z,97739.00
2018-10-11T02:45:31.580Z,97734.00
2018-10-11T02:48:03.455Z,97733.00
2018-10-11T02:50:35.518Z,97740.00
2018-10-11T02:53:07.367Z,97743.00
2018-10-11T02:55:39.476Z,97746.00
2018-10-11T02:58:27.264Z,97747.00
2018-10-11T03:00:59.388Z,97750.00
2018-10-11T03:03:31.884Z,97750.00
2018-10-11T03:06:04.371Z,97747.00
2018-10-11T03:08:36.441Z,97745.00
2018-10-11T03:11:08.406Z,97751.00
2018-10-11T03:13:40.289Z,97751.00
2018-10-11T03:16:12.094Z,97752.00
2018-10-11T03:18:44.122Z,97757.00
2018-10-11T03:21:15.904Z,97759.00
2018-10-11T03:23:47.733Z,97756.00
2018-10-11T03:26:19.541Z,97761.00
2018-10-11T03:28:51.337Z,97754.00
2018-10-11T03:31:22.986Z,97757.00
2018-10-11T03:33:54.569Z,97758.00
2018-10-11T03:36:26.505Z,97759.00
2018-10-11T03:38:58.154Z,97760.00
2018-10-11T03:41:29.830Z,97762.00
2018-10-11T03:44:01.703Z,97756.00
2018-10-11T03:46:33.633Z,97754.00
2018-10-11T03:49:05.319Z,97755.00
2018-10-11T03:51:37.254Z,97754.00
2018-10-11T03:54:09.048Z,97751.00
2018-10-11T03:56:40.932Z,97752.00
2018-10-11T03:59:13.081Z,97748.00
2018-10-11T04:01:45.014Z,97745.00
2018-10-11T04:04:16.713Z,97742.00
2018-10-11T04:06:48.559Z,97749.00
2018-10-11T04:09:20.405Z,97748.00
2018-10-11T04:11:52.337Z,97749.00
2018-10-11T04:14:24.017Z,97747.00
2018-10-11T04:16:55.690Z,97741.00
2018-10-11T04:19:27.558Z,97744.00
2018-10-11T04:21:59.294Z,97738.00
2018-10-11T04:24:31.062Z,97743.00
2018-10-11T04:27:02.912Z,97750.00
2018-10-11T04:29:34.696Z,97753.00
2018-10-11T04:32:06.587Z,97761.00
2018-10-11T04:34:38.391Z,97765.00
2018-10-11T04:37:10.782Z,97755.00
2018-10-11T04:39:42.789Z,97755.00
2018-10-11T04:42:14.584Z,97763.00
2018-10-11T04:44:46.253Z,97768.00
2018-10-11T04:47:18.116Z,97775.00
2018-10-11T04:49:49.778Z,97764.00
2018-10-11T04:52:21.534Z,97772.00
2018-10-11T04:54:53.407Z,97771.00
2018-10-11T04:57:25.159Z,97771.00
2018-10-11T04:59:56.992Z,97769.00
2018-10-11T05:02:28.869Z,97764.00
2018-10-11T05:05:00.514Z,97772.00
2018-10-11T05:07:32.394Z,97771.00
2018-10-11T05:10:04.270Z,97772.00
2018-10-11T05:12:36.394Z,97780.00
2018-10-11T05:15:08.525Z,97776.00
2018-10-11T05:17:40.475Z,97777.00
2018-10-11T05:20:12.435Z,97780.00
2018-10-11T05:22:44.494Z,97783.00
2018-10-11T05:25:16.461Z,97786.00
2018-10-11T05:27:48.383Z,97784.00
2018-10-11T05:30:20.180Z,97785.00
2018-10-11T05:32:52.112Z,97783.00
2018-10-11T05:35:23.907Z,97782.00
2018-10-11T05:37:55.845Z,97788.00
2018-10-11T05:40:27.638Z,97788.00
2018-10-11T05:42:59.689Z,97789.00
2018-10-11T05:45:31.729Z,97793.00
2018-10-11T05:48:03.747Z,97796.00
2018-10-11T05:50:35.587Z,97796.00
2018-10-11T05:53:07.827Z,97795.00
2018-10-11T05:55:39.814Z,97796.00
2018-10-11T05:58:11.871Z,97797.00
2018-10-11T06:00:44.209Z,97799.00
2018-10-11T06:03:16.293Z,97802.00
2018-10-11T06:05:48.292Z,97796.00
2018-10-11T06:08:20.435Z,97789.00
2018-10-11T06:10:52.602Z,97787.00
2018-10-11T06:13:24.553Z,97784.00
2018-10-11T06:15:56.590Z,97787.00
2018-10-11T06:18:28.460Z,97779.00
2018-10-11T06:21:00.557Z,97771.00
2018-10-11T06:23:32.355Z,97779.00
2018-10-11T06:26:04.322Z,97789.00
2018-10-11T06:28:36.331Z,97781.00
2018-10-11T06:31:08.348Z,97782.00
2018-10-11T06:33:40.956Z,97783.00
2018-10-11T06:36:12.864Z,97787.00
2018-10-11T06:38:44.916Z,97785.00
2018-10-11T06:41:16.900Z,97782.00
2018-10-11T06:43:48.956Z,97790.00
2018-10-11T06:46:21.617Z,97789.00
2018-10-11T06:48:53.609Z,97784.00
2018-10-11T06:51:25.978Z,97784.00
2018-10-11T06:53:58.001Z,97787.00
2018-10-11T06:56:29.890Z,97781.00
2018-10-11T06:59:01.641Z,97779.00
2018-10-11T07:01:33.320Z,97776.00
2018-10-11T07:04:05.300Z,97776.00
2018-10-11T07:06:37.162Z,97780.00
2018-10-11T07:09:10.187Z,97768.00
2018-10-11T07:11:41.982Z,97771.00
2018-10-11T07:14:13.641Z,97774.00
2018-10-11T07:16:45.415Z,97771.00
2018-10-11T07:19:17.404Z,97767.00
2018-10-11T07:21:49.378Z,97771.00
2018-10-11T07:24:21.187Z,97782.00
2018-10-11T07:26:53.000Z,97781.00
2018-10-11T07:29:24.939Z,97777.00
2018-10-11T07:31:56.662Z,97785.00
2018-10-11T07:34:28.376Z,97788.00
2018-10-11T07:37:00.214Z,97791.00
2018-10-11T07:39:32.078Z,97794.00
2018-10-11T07:42:03.941Z,97791.00
2018-10-11T07:44:35.874Z,97791.00
2018-10-11T07:47:07.591Z,97786.00
2018-10-11T07:49:39.535Z,97787.00
2018-10-11T07:52:11.585Z,97784.00
2018-10-11T07:54:43.469Z,97789.00
2018-10-11T07:57:15.202Z,97790.00
2018-10-11T07:59:46.954Z,97792.00
2018-10-11T08:02:19.006Z,97801.00
2018-10-11T08:04:50.759Z,97802.00
2018-10-11T08:07:22.535Z,97803.00
2018-10-11T08:09:54.710Z,97805.00
2018-10-11T08:12:26.726Z,97806.00
2018-10-11T08:14:58.567Z,97806.00
2018-10-11T08:17:31.146Z,97799.00
2018-10-11T08:20:02.819Z,97799.00
2018-10-11T08:22:34.506Z,97800.00
2018-10-11T08:25:06.403Z,97792.00
2018-10-11T08:27:38.129Z,97787.00
2018-10-11T08:30:10.312Z,97782.00
2018-10-11T08:32:42.353Z,97780.00
2018-10-11T08:35:13.834Z,97779.00
2018-10-11T08:37:45.830Z,97782.00
2018-10-11T08:40:17.745Z,97786.00
2018-10-11T08:42:49.530Z,97790.00
2018-10-11T08:45:21.393Z,97792.00
2018-10-11T08:47:53.242Z,97793.00
2018-10-11T08:50:25.235Z,97791.00
2018-10-11T08:52:56.854Z,97791.00
2018-10-11T08:55:28.656Z,97796.00
2018-10-11T08:58:00.371Z,97787.00
2018-10-11T09:00:32.138Z,97787.00
2018-10-11T09:03:03.975Z,97780.00
2018-10-11T09:05:35.777Z,97780.00
2018-10-11T09:08:07.726Z,97772.00
2018-10-11T09:10:39.668Z,97773.00
2018-10-11T09:13:11.629Z,97775.00
2018-10-11T09:15:43.510Z,97772.00
2018-10-11T09:18:15.384Z,97775.00
2018-10-11T09:20:47.235Z,97773.00
2018-10-11T09:23:19.210Z,97778.00
2018-10-11T09:25:51.137Z,97777.00
2018-10-11T09:28:23.047Z,97776.00
2018-10-11T09:30:54.797Z,97778.00
2018-10-11T09:33:26.620Z,97776.00
2018-10-11T09:35:58.282Z,97775.00
2018-10-11T09:38:29.968Z,97769.00
2018-10-11T09:41:01.896Z,97776.00
2018-10-11T09:43:33.567Z,97772.00
2018-10-11T09:46:05.457Z,97771.00
2018-10-11T09:48:37.277Z,97764.00
2018-10-11T09:51:10.205Z,97765.00
2018-10-11T09:53:42.282Z,97769.00
2018-10-11T09:56:14.199Z,97762.00
2018-10-11T09:58:45.984Z,97770.00
2018-10-11T10:01:22.649Z,97767.00
2018-10-11T10:03:54.408Z,97762.00
2018-10-11T10:06:26.185Z,97762.00
2018-10-11T10:08:57.910Z,97771.00
2018-10-11T10:11:29.812Z,97765.00
2018-10-11T10:14:01.742Z,97764.00
2018-10-11T10:16:33.587Z,97762.00
2018-10-11T10:19:05.383Z,97755.00
2018-10-11T10:21:37.176Z,97752.00
2018-10-11T10:24:09.105Z,97757.00
2018-10-11T10:26:41.053Z,97750.00
2018-10-11T10:29:12.798Z,97745.00
2018-10-11T10:31:44.672Z,97745.00
2018-10-11T10:34:16.536Z,97744.00
2018-10-11T10:36:48.512Z,97735.00
2018-10-11T10:39:20.475Z,97741.00
2018-10-11T10:41:52.315Z,97733.00
2018-10-11T10:44:24.080Z,97727.00
2018-10-11T10:46:55.946Z,97727.00
2018-10-11T10:49:27.790Z,97717.00
2018-10-11T10:51:59.547Z,97718.00
2018-10-11T10:54:33.406Z,97715.00
2018-10-11T10:57:05.884Z,97707.00
2018-10-11T10:59:37.688Z,97707.00
2018-10-11T11:02:09.588Z,97704.00
2018-10-11T11:04:41.435Z,97698.00
2018-10-11T11:07:13.392Z,97704.00
2018-10-11T11:09:45.237Z,97700.00
2018-10-11T11:12:17.006Z,97700.00
2018-10-11T11:14:48.771Z,97697.00
2018-10-11T11:17:20.605Z,97694.00
2018-10-11T11:19:52.389Z,97692.00
2018-10-11T11:22:24.151Z,97694.00
2018-10-11T11:25:05.899Z,97684.00
2018-10-11T11:27:38.095Z,97691.00
2018-10-11T11:30:16.340Z,97691.00
2018-10-11T11:32:55.774Z,97683.00
2018-10-11T11:35:28.252Z,97679.00
2018-10-11T11:38:00.116Z,97678.00
2018-10-11T11:40:31.850Z,97676.00
2018-10-11T11:43:03.618Z,97680.00
2018-10-11T11:45:35.464Z,97685.00
2018-10-11T11:48:07.627Z,97683.00
2018-10-11T11:50:39.364Z,97678.00
2018-10-11T11:53:11.234Z,97681.00
2018-10-11T11:55:43.109Z,97682.00
2018-10-11T11:58:14.787Z,97683.00
2018-10-11T12:00:46.581Z,97682.00
2018-10-11T12:03:18.391Z,97678.00
2018-10-11T12:05:50.061Z,97678.00
2018-10-11T12:08:21.818Z,97678.00
2018-10-11T12:10:53.685Z,97665.00
2018-10-11T12:13:25.530Z,97664.00
2018-10-11T12:15:57.413Z,97658.00
2018-10-11T12:18:29.170Z,97654.00
2018-10-11T12:21:01.123Z,97658.00
2018-10-11T12:23:32.983Z,97664.00
2018-10-11T12:26:04.748Z,97667.00
2018-10-11T12:28:36.721Z,97660.00
2018-10-11T12:31:08.562Z,97666.00
2018-10-11T12:33:40.173Z,97659.00
2018-10-11T12:36:12.074Z,97665.00
2018-10-11T12:38:44.060Z,97662.00
2018-10-11T12:41:16.034Z,97659.00
2018-10-11T12:43:48.081Z,97655.00
2018-10-11T12:46:19.769Z,97654.00
2018-10-11T12:48:51.687Z,97653.00
2018-10-11T12:51:23.350Z,97655.00
2018-10-11T12:53:55.118Z,97655.00
2018-10-11T12:56:26.830Z,97654.00
2018-10-11T12:58:58.547Z,97646.00
2018-10-11T13:01:30.490Z,97649.00
2018-10-11T13:04:02.273Z,97646.00
2018-10-11T13:06:34.024Z,97645.00
2018-10-11T13:09:08.920Z,97643.00
2018-10-11T13:11:40.826Z,97651.00
2018-10-11T13:14:12.671Z,97656.00
2018-10-11T13:16:44.581Z,97646.00
2018-10-11T13:19:16.545Z,97646.00
2018-10-11T13:21:48.244Z,97645.00
2018-10-11T13:24:19.927Z,97645.00
2018-10-11T13:26:52.035Z,97646.00
2018-10-11T13:29:23.725Z,97645.00
2018-10-11T13:31:55.515Z,97643.00
2018-10-11T13:34:27.351Z,97640.00
2018-10-11T13:36:59.098Z,97641.00
2018-10-11T13:39:30.778Z,97638.00
2018-10-11T13:42:02.618Z,97643.00
2018-10-11T13:44:34.412Z,97640.00
2018-10-11T13:47:06.116Z,97638.00
2018-10-11T13:49:37.928Z,97643.00
2018-10-11T13:52:15.494Z,97639.00
2018-10-11T13:54:41.630Z,97638.00
2018-10-11T13:57:13.479Z,97637.00
2018-10-11T13:59:45.143Z,97645.00
2018-10-11T14:02:16.974Z,97637.00
2018-10-11T14:04:48.757Z,97638.00
2018-10-11T14:07:20.542Z,97635.00
2018-10-11T14:09:52.298Z,97634.00
2018-10-11T14:12:24.241Z,97631.00
2018-10-11T14:14:56.044Z,97638.00
2018-10-11T14:17:27.771Z,97634.00
2018-10-11T14:19:59.534Z,97634.00
2018-10-11T14:22:31.390Z,97635.00
2018-10-11T14:25:03.148Z,97640.00
2018-10-11T14:27:34.913Z,97636.00
2018-10-11T14:30:06.976Z,97635.00
2018-10-11T14:32:38.743Z,97640.00
2018-10-11T14:35:10.599Z,97637.00
2018-10-11T14:37:42.354Z,97637.00
2018-10-11T14:40:14.234Z,97635.00
2018-10-11T14:42:45.968Z,97633.00
2018-10-11T14:45:17.978Z,97640.00
2018-10-11T14:47:49.780Z,97641.00
2018-10-11T14:50:21.450Z,97638.00
2018-10-11T14:52:53.129Z,97642.00
2018-10-11T14:55:24.981Z,97645.00
2018-10-11T14:57:56.737Z,97636.00
2018-10-11T15:00:28.595Z,97640.00
2018-10-11T15:03:00.627Z,97642.00
2018-10-11T15:05:32.650Z,97644.00
2018-10-11T15:08:04.501Z,97646.00
2018-10-11T15:10:36.250Z,97652.00
2018-10-11T15:13:08.325Z,97650.00
2018-10-11T15:15:40.228Z,97654.00
2018-10-11T15:18:12.120Z,97664.00
2018-10-11T15:20:43.751Z,97663.00
2018-10-11T15:23:15.738Z,97667.00
2018-10-11T15:25:47.545Z,97674.00
2018-10-11T15:28:19.471Z,97671.00
2018-10-11T15:30:51.143Z,97676.00
2018-10-11T15:33:22.910Z,97677.00
2018-10-11T15:35:54.744Z,97677.00
2018-10-11T15:38:26.516Z,97682.00
2018-10-11T15:40:58.279Z,97687.00
2018-10-11T15:43:30.217Z,97687.00
2018-10-11T15:46:01.919Z,97695.00
2018-10-11T15:48:33.661Z,97691.00
2018-10-11T15:51:05.597Z,97689.00
2018-10-11T15:53:37.395Z,97689.00
2018-10-11T15:56:10.443Z,97692.00
2018-10-11T15:58:42.344Z,97696.00
2018-10-11T16:01:14.113Z,97695.00
2018-10-11T16:03:45.954Z,97693.00
2018-10-11T16:06:17.828Z,97688.00
2018-10-11T16:08:49.872Z,97689.00
2018-10-11T16:11:21.754Z,97682.00
2018-10-11T16:13:53.605Z,97691.00
2018-10-11T16:16:25.557Z,97695.00
2018-10-11T16:18:57.426Z,97697.00
2018-10-11T16:21:29.430Z,97695.00
2018-10-11T16:24:01.253Z,97706.00
2018-10-11T16:26:33.329Z,97703.00
2018-10-11T16:29:05.187Z,97711.00
2018-10-11T16:31:36.943Z,97712.00
2018-10-11T16:34:08.778Z,97717.00
2018-10-11T16:36:40.446Z,97720.00
2018-10-11T16:39:12.254Z,97722.00
2018-10-11T16:41:44.191Z,97726.00
2018-10-11T16:44:15.939Z,97726.00
2018-10-11T16:46:47.898Z,97732.00
2018-10-11T16:49:19.753Z,97732.00
2018-10-11T16:51:51.594Z,97739.00
2018-10-11T16:54:23.397Z,97745.00
2018-10-11T16:56:55.148Z,97747.00
2018-10-11T16:59:26.985Z,97747.00
2018-10-11T17:01:58.669Z,97745.00
2018-10-11T17:04:30.570Z,97747.00
2018-10-11T17:07:02.402Z,97754.00
2018-10-11T17:09:34.168Z,97752.00
2018-10-11T17:12:06.094Z,97752.00
2018-10-11T17:14:37.958Z,97760.00
2018-10-11T17:17:09.734Z,97761.00
2018-10-11T17:19:41.570Z,97762.00
2018-10-11T17:22:13.452Z,97765.00
2018-10-11T17:24:45.196Z,97766.00
2018-10-11T17:27:17.046Z,97767.00
2018-10-11T17:29:48.861Z,97767.00
2018-10-11T17:32:20.617Z,97770.00
2018-10-11T17:34:52.676Z,97777.00
2018-10-11T17:37:24.498Z,97778.00
2018-10-11T17:39:56.271Z,97786.00
2018-10-11T17:42:28.178Z,97784.00
2018-10-11T17:45:00.019Z,97788.00
2018-10-11T17:47:31.751Z,97783.00
2018-10-11T17:50:03.443Z,97782.00
2018-10-11T17:52:35.461Z,97788.00
2018-10-11T17:55:07.217Z,97790.00
2018-10-11T17:57:38.961Z,97786.00
2018-10-11T18:00:11.389Z,97788.00
2018-10-11T18:02:43.342Z,97786.00
2018-10-11T18:05:15.078Z,97792.00
2018-10-11T18:07:46.752Z,97791.00
2018-10-11T18:10:18.722Z,97794.00
2018-10-11T18:12:50.466Z,97799.00
2018-10-11T18:15:22.221Z,97801.00
2018-10-11T18:17:54.080Z,97802.00
2018-10-11T18:20:26.069Z,97804.00
2018-10-11T18:22:57.803Z,97808.00
2018-10-11T18:25:29.585Z,97807.00
2018-10-11T18:28:01.430Z,97804.00
2018-10-11T18:30:33.183Z,97808.00
2018-10-11T18:33:04.950Z,97805.00
2018-10-11T18:35:39.777Z,97809.00
2018-10-11T18:38:16.980Z,97813.00
2018-10-11T18:41:02.952Z,97818.00
2018-10-11T18:43:41.727Z,97821.00
2018-10-11T18:46:20.292Z,97820.00
2018-10-11T18:49:08.321Z,97819.00
2018-10-11T18:51:51.356Z,97825.00
2018-10-11T18:54:23.212Z,97825.00
2018-10-11T18:56:54.890Z,97825.00
2018-10-11T18:59:26.538Z,97831.00
2018-10-11T19:01:58.201Z,97830.00
2018-10-11T19:04:29.958Z,97830.00
2018-10-11T19:07:01.922Z,97832.00
2018-10-11T19:09:33.679Z,97833.00
2018-10-11T19:12:05.541Z,97839.00
2018-10-11T19:14:37.314Z,97844.00
2018-10-11T19:17:09.350Z,97843.00
2018-10-11T19:19:41.225Z,97842.00
2018-10-11T19:22:12.872Z,97845.00
2018-10-11T19:24:44.641Z,97844.00
2018-10-11T19:27:16.650Z,97850.00
2018-10-11T19:29:48.651Z,97844.00
2018-10-11T19:32:20.426Z,97854.00
2018-10-11T19:34:52.187Z,97856.00
2018-10-11T19:37:24.059Z,97851.00
2018-10-11T19:39:55.926Z,97849.00
2018-10-11T19:42:27.688Z,97850.00
2018-10-11T19:44:59.530Z,97846.00
2018-10-11T19:47:31.377Z,97846.00
2018-10-11T19:50:03.253Z,97849.00
2018-10-11T19:52:35.118Z,97853.00
2018-10-11T19:55:08.929Z,97854.00
2018-10-11T19:57:51.373Z,97856.00
2018-10-11T20:00:26.069Z,97862.00
2018-10-11T20:02:58.129Z,97865.00
2018-10-11T20:05:32.253Z,97867.00
2018-10-11T20:08:06.620Z,97876.00
2018-10-11T20:10:38.537Z,97873.00
2018-10-11T20:13:13.379Z,97876.00
2018-10-11T20:15:47.096Z,97877.00
2018-10-11T20:18:18.916Z,97881.00
2018-10-11T20:20:50.661Z,97880.00
2018-10-11T20:23:22.309Z,97877.00
2018-10-11T20:25:54.059Z,97878.00
2018-10-11T20:28:25.870Z,97882.00
2018-10-11T20:30:57.606Z,97881.00
2018-10-11T20:33:29.366Z,97878.00
2018-10-11T20:36:01.106Z,97885.00
2018-10-11T20:38:32.793Z,97888.00
2018-10-11T20:41:04.688Z,97892.00
2018-10-11T20:43:36.560Z,97891.00
2018-10-11T20:46:08.369Z,97898.00
2018-10-11T20:48:40.140Z,97901.00
2018-10-11T20:51:11.997Z,97900.00
2018-10-11T20:53:43.772Z,97901.00
2018-10-11T20:56:15.625Z,97899.00
2018-10-11T20:58:47.470Z,97903.00
2018-10-11T21:01:19.242Z,97903.00
2018-10-11T21:03:51.098Z,97904.00
2018-10-11T21:06:22.891Z,97905.00
2018-10-11T21:08:54.590Z,97905.00
2018-10-11T21:11:26.349Z,97904.00
2018-10-11T21:13:58.314Z,97902.00
2018-10-11T21:16:30.010Z,97906.00
2018-10-11T21:19:01.845Z,97910.00
2018-10-11T21:21:33.900Z,97907.00
2018-10-11T21:24:05.869Z,97918.00
2018-10-11T21:26:37.727Z,97915.00
2018-10-11T21:29:09.382Z,97924.00
2018-10-11T21:31:41.160Z,97923.00
2018-10-11T21:34:13.167Z,97923.00
2018-10-11T21:36:44.785Z,97930.00
2018-10-11T21:39:16.538Z,97933.00
2018-10-11T21:41:48.477Z,97935.00
2018-10-11T21:44:20.270Z,97937.00
2018-10-11T21:46:52.131Z,97932.00
2018-10-11T21:49:24.034Z,97939.00
2018-10-11T21:51:55.822Z,97940.00
2018-10-11T21:54:27.618Z,97941.00
2018-10-11T21:56:59.349Z,97933.00
2018-10-11T21:59:31.101Z,97944.00
2018-10-11T22:02:02.891Z,97946.00
2018-10-11T22:04:34.636Z,97953.00
2018-10-11T22:07:06.381Z,97955.00
2018-10-11T22:09:38.103Z,97959.00
2018-10-11T22:12:09.949Z,97956.00
2018-10-11T22:14:41.838Z,97960.00
2018-10-11T22:17:13.547Z,97962.00
2018-10-11T22:19:45.495Z,97961.00
2018-10-11T22:22:17.377Z,97964.00
2018-10-11T22:24:49.234Z,97963.00
2018-10-11T22:27:21.091Z,97972.00
2018-10-11T22:29:52.831Z,97973.00
2018-10-11T22:32:24.691Z,97984.00
2018-10-11T22:34:56.547Z,97986.00
2018-10-11T22:37:28.207Z,97984.00
2018-10-11T22:39:59.939Z,97981.00
2018-10-11T22:42:31.720Z,97981.00
2018-10-11T22:45:03.519Z,97991.00
2018-10-11T22:47:35.486Z,97993.00
2018-10-11T22:50:07.659Z,97997.00
2018-10-11T22:52:39.505Z,97998.00
2018-10-11T22:55:11.390Z,97994.00
2018-10-11T22:57:43.217Z,97999.00
2018-10-11T23:00:15.058Z,97998.00
2018-10-11T23:02:46.842Z,98009.00
2018-10-11T23:05:18.590Z,98009.00
2018-10-11T23:07:50.542Z,98005.00
2018-10-11T23:10:22.539Z,98012.00
2018-10-11T23:12:54.380Z,98024.00
2018-10-11T23:15:26.035Z,98023.00
2018-10-11T23:17:57.877Z,98027.00
2018-10-11T23:20:29.766Z,98033.00
2018-10-11T23:23:01.523Z,98037.00
2018-10-11T23:25:33.391Z,98040.00
2018-10-11T23:28:05.256Z,98047.00
2018-10-11T23:30:36.990Z,98043.00
2018-10-11T23:33:08.861Z,98044.00
2018-10-11T23:35:40.729Z,98044.00
2018-10-11T23:38:12.672Z,98052.00
2018-10-11T23:40:44.459Z,98052.00
2018-10-11T23:43:16.320Z,98059.00
2018-10-11T23:45:48.150Z,98057.00
2018-10-11T23:48:19.940Z,98059.00
2018-10-11T23:50:51.785Z,98055.00
2018-10-11T23:53:23.541Z,98061.00
2018-10-11T23:55:55.284Z,98062.00
2018-10-11T23:58:27.310Z,98061.00
